createdAt,value
2019-02-09T00:00:17.812Z,0.00
2019-02-09T00:01:17.799Z,0.00
2019-02-09T00:02:17.789Z,0.00
2019-02-09T00:03:17.798Z,0.00
2019-02-09T00:04:17.780Z,0.00
2019-02-09T00:05:17.756Z,0.00
2019-02-09T00:06:17.779Z,0.00
2019-02-09T00:07:17.732Z,0.00
2019-02-09T00:08:17.747Z,0.00
2019-02-09T00:09:17.709Z,0.00
2019-02-09T00:10:17.701Z,0.00
2019-02-09T00:11:17.690Z,0.00
2019-02-09T00:12:17.687Z,0.00
2019-02-09T00:13:17.694Z,0.00
2019-02-09T00:14:17.655Z,0.00
2019-02-09T00:15:17.641Z,0.00
2019-02-09T00:16:17.651Z,0.00
2019-02-09T00:17:17.632Z,0.00
2019-02-09T00:18:17.610Z,0.00
2019-02-09T00:19:17.601Z,0.00
2019-02-09T00:20:17.600Z,0.00
2019-02-09T00:21:17.610Z,0.00
2019-02-09T00:22:17.589Z,0.00
2019-02-09T00:23:17.556Z,0.00
2019-02-09T00:24:17.547Z,0.00
2019-02-09T00:25:17.535Z,0.00
2019-02-09T00:26:17.549Z,0.00
2019-02-09T00:27:17.519Z,0.00
2019-02-09T00:28:17.499Z,0.00
2019-02-09T00:29:17.497Z,0.00
2019-02-09T00:30:17.475Z,0.00
2019-02-09T00:31:17.491Z,0.00
2019-02-09T00:32:17.453Z,0.00
2019-02-09T00:33:17.464Z,0.00
2019-02-09T00:34:17.430Z,0.00
2019-02-09T00:35:17.447Z,0.00
2019-02-09T00:36:17.439Z,0.00
2019-02-09T00:37:17.400Z,0.00
2019-02-09T00:38:17.391Z,0.00
2019-02-09T00:39:17.380Z,0.00
2019-02-09T00:40:17.370Z,0.00
2019-02-09T00:41:17.387Z,0.00
2019-02-09T00:42:17.345Z,0.00
2019-02-09T00:43:17.333Z,0.00
2019-02-09T00:44:17.322Z,0.00
2019-02-09T00:45:17.315Z,0.00
2019-02-09T00:46:17.325Z,0.00
2019-02-09T00:47:17.297Z,0.00
2019-02-09T00:48:17.283Z,0.00
2019-02-09T00:49:17.286Z,0.00
2019-02-09T00:50:17.255Z,0.00
2019-02-09T00:51:17.264Z,0.00
2019-02-09T00:52:17.232Z,0.00
2019-02-09T00:53:17.221Z,0.00
2019-02-09T00:54:17.225Z,0.00
2019-02-09T00:55:17.212Z,0.00
2019-02-09T00:56:17.220Z,0.00
2019-02-09T00:57:17.183Z,0.00
2019-02-09T00:58:17.173Z,0.00
2019-02-09T00:59:17.159Z,0.00
2019-02-09T01:00:17.143Z,0.00
2019-02-09T01:01:17.163Z,0.00
2019-02-09T01:02:17.126Z,0.00
2019-02-09T01:03:17.113Z,0.00
2019-02-09T01:04:17.108Z,0.00
2019-02-09T01:05:17.092Z,0.00
2019-02-09T01:06:17.084Z,0.00
2019-02-09T01:07:17.092Z,0.00
2019-02-09T01:08:17.096Z,0.00
2019-02-09T01:09:17.045Z,0.00
2019-02-09T01:10:17.034Z,0.00
2019-02-09T01:11:17.026Z,0.00
2019-02-09T01:12:17.031Z,0.00
2019-02-09T01:13:17.026Z,0.00
2019-02-09T01:14:16.993Z,0.00
2019-02-09T01:15:16.985Z,0.00
2019-02-09T01:16:17.015Z,0.00
2019-02-09T01:17:16.961Z,0.00
2019-02-09T01:18:16.972Z,0.00
2019-02-09T01:19:16.951Z,0.00
2019-02-09T01:20:16.966Z,0.00
2019-02-09T01:21:16.912Z,0.00
2019-02-09T01:22:16.901Z,0.00
2019-02-09T01:23:16.896Z,0.00
2019-02-09T01:24:16.879Z,0.00
2019-02-09T01:25:16.913Z,0.00
2019-02-09T01:26:16.872Z,0.00
2019-02-09T01:27:16.864Z,0.00
2019-02-09T01:28:16.838Z,0.00
2019-02-09T01:29:16.826Z,0.00
2019-02-09T01:30:16.846Z,0.00
2019-02-09T01:31:16.828Z,0.00
2019-02-09T01:32:16.806Z,0.00
2019-02-09T01:33:16.780Z,0.00
2019-02-09T01:34:16.771Z,0.00
2019-02-09T01:35:16.802Z,0.00
2019-02-09T01:36:16.746Z,0.00
2019-02-09T01:37:16.759Z,0.00
2019-02-09T01:38:16.729Z,0.00
2019-02-09T01:39:16.737Z,0.00
2019-02-09T01:40:16.705Z,0.00
2019-02-09T01:41:16.720Z,0.00
2019-02-09T01:42:16.680Z,0.00
2019-02-09T01:43:16.676Z,0.00
2019-02-09T01:44:16.673Z,0.00
2019-02-09T01:45:16.655Z,0.00
2019-02-09T01:46:16.654Z,0.00
2019-02-09T01:47:16.627Z,0.00
2019-02-09T01:48:16.624Z,0.00
2019-02-09T01:49:16.651Z,0.00
2019-02-09T01:50:16.592Z,0.00
2019-02-09T01:51:16.595Z,0.00
2019-02-09T01:52:16.569Z,0.00
2019-02-09T01:53:16.557Z,0.00
2019-02-09T01:54:16.573Z,0.00
2019-02-09T01:55:16.536Z,0.00
2019-02-09T01:56:16.554Z,0.00
2019-02-09T01:57:16.529Z,0.00
2019-02-09T01:58:16.536Z,0.00
2019-02-09T01:59:16.493Z,0.00
2019-02-09T02:00:16.485Z,0.00
2019-02-09T02:01:16.499Z,0.00
2019-02-09T02:02:16.504Z,0.00
2019-02-09T02:03:16.482Z,0.00
2019-02-09T02:04:16.437Z,0.00
2019-02-09T02:05:16.427Z,0.00
2019-02-09T02:06:16.418Z,0.00
2019-02-09T02:07:16.429Z,0.00
2019-02-09T02:08:16.401Z,0.00
2019-02-09T02:09:16.383Z,0.00
2019-02-09T02:10:16.404Z,0.00
2019-02-09T02:11:16.368Z,0.00
2019-02-09T02:12:16.357Z,0.00
2019-02-09T02:13:16.341Z,0.00
2019-02-09T02:14:16.325Z,0.00
2019-02-09T02:15:16.353Z,0.00
2019-02-09T02:16:16.324Z,0.00
2019-02-09T02:17:16.315Z,0.00
2019-02-09T02:18:16.307Z,0.00
2019-02-09T02:19:16.273Z,0.00
2019-02-09T02:20:16.259Z,0.00
2019-02-09T02:21:16.258Z,0.00
2019-02-09T02:22:16.272Z,0.00
2019-02-09T02:23:16.228Z,0.00
2019-02-09T02:24:16.220Z,0.00
2019-02-09T02:25:16.208Z,0.00
2019-02-09T02:26:16.192Z,0.00
2019-02-09T02:27:16.211Z,0.00
2019-02-09T02:28:16.195Z,0.00
2019-02-09T02:29:16.200Z,0.00
2019-02-09T02:30:22.472Z,0.00
2019-02-09T02:31:17.163Z,0.00
2019-02-09T02:32:16.130Z,0.00
2019-02-09T02:33:16.128Z,0.00
2019-02-09T02:34:16.106Z,0.00
2019-02-09T02:35:16.126Z,0.00
2019-02-09T02:36:16.085Z,0.00
2019-02-09T02:37:16.075Z,0.00
2019-02-09T02:38:16.065Z,0.00
2019-02-09T02:39:16.052Z,0.00
2019-02-09T02:40:16.060Z,0.00
2019-02-09T02:41:16.059Z,0.00
2019-02-09T02:42:16.026Z,0.00
2019-02-09T02:43:16.008Z,0.00
2019-02-09T02:44:16.013Z,0.00
2019-02-09T02:45:15.985Z,0.00
2019-02-09T02:46:15.975Z,0.00
2019-02-09T02:47:15.964Z,0.00
2019-02-09T02:48:15.976Z,0.00
2019-02-09T02:49:15.949Z,0.00
2019-02-09T02:50:15.932Z,0.00
2019-02-09T02:51:15.928Z,0.00
2019-02-09T02:52:15.911Z,0.00
2019-02-09T02:53:16.544Z,0.00
2019-02-09T02:54:15.892Z,0.00
2019-02-09T02:55:15.873Z,0.00
2019-02-09T02:56:30.653Z,0.00
2019-02-09T02:57:15.856Z,0.00
2019-02-09T02:58:15.870Z,0.00
2019-02-09T02:59:15.830Z,0.00
2019-02-09T03:00:15.823Z,0.00
2019-02-09T03:01:15.833Z,0.00
2019-02-09T03:02:15.800Z,0.00
2019-02-09T03:03:15.787Z,0.00
2019-02-09T03:04:15.776Z,0.00
2019-02-09T03:05:15.797Z,0.00
2019-02-09T03:06:15.793Z,0.00
2019-02-09T03:07:15.743Z,0.00
2019-02-09T03:08:15.739Z,0.00
2019-02-09T03:09:15.725Z,0.00
2019-02-09T03:10:15.755Z,0.00
2019-02-09T03:11:15.738Z,0.00
2019-02-09T03:12:15.686Z,0.00
2019-02-09T03:13:15.685Z,0.00
2019-02-09T03:14:15.668Z,0.00
2019-02-09T03:15:15.664Z,0.00
2019-02-09T03:16:15.701Z,0.00
2019-02-09T03:17:15.631Z,0.00
2019-02-09T03:18:15.626Z,0.00
2019-02-09T03:19:15.652Z,0.00
2019-02-09T03:20:15.609Z,0.00
2019-02-09T03:21:15.589Z,0.00
2019-02-09T03:22:15.622Z,0.00
2019-02-09T03:23:15.565Z,0.00
2019-02-09T03:24:15.582Z,0.00
2019-02-09T03:25:15.546Z,0.00
2019-02-09T03:26:15.580Z,0.00
2019-02-09T03:27:15.527Z,0.00
2019-02-09T03:28:15.543Z,0.00
2019-02-09T03:29:15.501Z,0.00
2019-02-09T03:30:15.509Z,0.00
2019-02-09T03:31:15.481Z,0.00
2019-02-09T03:32:15.469Z,0.00
2019-02-09T03:33:15.535Z,0.00
2019-02-09T03:34:15.469Z,0.00
2019-02-09T03:35:15.434Z,0.00
2019-02-09T03:36:15.460Z,0.00
2019-02-09T03:37:15.449Z,0.00
2019-02-09T03:38:15.438Z,0.00
2019-02-09T03:39:15.396Z,0.00
2019-02-09T03:40:15.408Z,0.00
2019-02-09T03:41:15.369Z,0.00
2019-02-09T03:42:15.405Z,0.00
2019-02-09T03:43:15.347Z,0.00
2019-02-09T03:44:15.365Z,0.00
2019-02-09T03:45:15.348Z,0.00
2019-02-09T03:46:15.338Z,0.00
2019-02-09T03:47:15.301Z,0.00
2019-02-09T03:48:15.299Z,0.00
2019-02-09T03:49:15.319Z,0.00
2019-02-09T03:50:15.278Z,0.00
2019-02-09T03:51:15.271Z,0.00
2019-02-09T03:52:15.273Z,0.00
2019-02-09T03:53:15.269Z,0.00
2019-02-09T03:54:15.225Z,0.00
2019-02-09T03:55:15.222Z,0.00
2019-02-09T03:56:15.213Z,0.00
2019-02-09T03:57:15.198Z,0.00
2019-02-09T03:58:15.226Z,0.00
2019-02-09T03:59:15.204Z,0.00
2019-02-09T04:00:15.174Z,0.00
2019-02-09T04:01:15.174Z,0.00
2019-02-09T04:02:15.139Z,0.00
2019-02-09T04:03:15.151Z,0.00
2019-02-09T04:04:15.130Z,0.00
2019-02-09T04:05:15.111Z,0.00
2019-02-09T04:06:15.113Z,0.00
2019-02-09T04:07:15.082Z,0.00
2019-02-09T04:08:15.110Z,0.00
2019-02-09T04:09:15.063Z,0.00
2019-02-09T04:10:15.051Z,0.00
2019-02-09T04:11:15.036Z,0.00
2019-02-09T04:12:15.036Z,0.00
2019-02-09T04:13:15.041Z,0.00
2019-02-09T04:14:15.003Z,0.00
2019-02-09T04:15:14.992Z,0.00
2019-02-09T04:16:14.983Z,0.00
2019-02-09T04:17:14.971Z,0.00
2019-02-09T04:18:15.057Z,0.00
2019-02-09T04:19:14.958Z,0.00
2019-02-09T04:20:14.948Z,0.00
2019-02-09T04:21:14.929Z,0.00
2019-02-09T04:22:14.916Z,0.00
2019-02-09T04:23:14.930Z,0.00
2019-02-09T04:24:14.915Z,0.00
2019-02-09T04:25:14.884Z,0.00
2019-02-09T04:26:14.875Z,0.00
2019-02-09T04:27:14.860Z,0.00
2019-02-09T04:28:14.872Z,0.00
2019-02-09T04:29:14.873Z,0.00
2019-02-09T04:30:14.831Z,0.00
2019-02-09T04:31:14.820Z,0.00
2019-02-09T04:32:14.824Z,0.00
2019-02-09T04:33:14.794Z,0.00
2019-02-09T04:34:14.821Z,0.00
2019-02-09T04:35:14.771Z,0.00
2019-02-09T04:36:14.758Z,0.00
2019-02-09T04:37:14.770Z,0.00
2019-02-09T04:38:14.741Z,0.00
2019-02-09T04:39:14.748Z,0.00
2019-02-09T04:40:14.742Z,0.00
2019-02-09T04:41:14.703Z,0.00
2019-02-09T04:42:14.701Z,0.00
2019-02-09T04:43:14.706Z,0.00
2019-02-09T04:44:14.706Z,0.00
2019-02-09T04:45:14.667Z,0.00
2019-02-09T04:46:14.697Z,0.00
2019-02-09T04:47:14.644Z,0.00
2019-02-09T04:48:14.631Z,0.00
2019-02-09T04:49:14.630Z,0.00
2019-02-09T04:50:14.608Z,0.00
2019-02-09T04:51:14.629Z,0.00
2019-02-09T04:52:14.582Z,0.00
2019-02-09T04:53:14.594Z,0.00
2019-02-09T04:54:14.568Z,0.00
2019-02-09T04:55:14.585Z,0.00
2019-02-09T04:56:14.571Z,0.00
2019-02-09T04:57:14.536Z,0.00
2019-02-09T04:58:14.547Z,0.00
2019-02-09T04:59:14.531Z,0.00
2019-02-09T05:00:14.502Z,0.00
2019-02-09T05:01:14.487Z,0.00
2019-02-09T05:02:14.484Z,0.00
2019-02-09T05:03:14.492Z,0.00
2019-02-09T05:04:14.489Z,0.00
2019-02-09T05:05:14.440Z,0.00
2019-02-09T05:06:14.434Z,0.00
2019-02-09T05:07:14.419Z,0.00
2019-02-09T05:08:14.423Z,0.00
2019-02-09T05:09:14.406Z,0.00
2019-02-09T05:10:14.411Z,0.00
2019-02-09T05:11:14.376Z,0.00
2019-02-09T05:12:14.377Z,0.00
2019-02-09T05:13:14.358Z,0.00
2019-02-09T05:14:14.341Z,0.00
2019-02-09T05:15:14.364Z,0.00
2019-02-09T05:16:14.327Z,0.00
2019-02-09T05:17:14.339Z,0.00
2019-02-09T05:18:14.315Z,0.00
2019-02-09T05:19:14.311Z,0.00
2019-02-09T05:20:14.296Z,0.00
2019-02-09T05:21:14.261Z,0.00
2019-02-09T05:22:14.255Z,0.00
2019-02-09T05:23:14.282Z,0.00
2019-02-09T05:24:14.259Z,0.00
2019-02-09T05:25:14.230Z,0.00
2019-02-09T05:26:14.207Z,0.00
2019-02-09T05:27:14.236Z,0.00
2019-02-09T05:28:14.209Z,0.00
2019-02-09T05:29:14.182Z,0.00
2019-02-09T05:30:14.167Z,0.00
2019-02-09T05:31:22.667Z,0.00
2019-02-09T05:32:15.167Z,0.00
2019-02-09T05:33:14.132Z,0.00
2019-02-09T05:34:14.124Z,0.00
2019-02-09T05:35:14.114Z,0.00
2019-02-09T05:36:14.123Z,0.00
2019-02-09T05:37:14.103Z,0.00
2019-02-09T05:38:14.076Z,0.00
2019-02-09T05:39:14.064Z,0.00
2019-02-09T05:40:14.059Z,0.00
2019-02-09T05:41:14.107Z,0.00
2019-02-09T05:42:14.036Z,0.00
2019-02-09T05:43:14.019Z,0.00
2019-02-09T05:44:14.045Z,0.00
2019-02-09T05:45:14.033Z,0.00
2019-02-09T05:46:13.986Z,0.00
2019-02-09T05:47:14.008Z,0.00
2019-02-09T05:48:13.989Z,0.00
2019-02-09T05:49:13.997Z,0.00
2019-02-09T05:50:13.944Z,0.00
2019-02-09T05:51:13.931Z,0.00
2019-02-09T05:52:13.919Z,0.00
2019-02-09T05:53:13.940Z,0.00
2019-02-09T05:54:13.908Z,0.00
2019-02-09T05:55:13.889Z,0.00
2019-02-09T05:56:13.911Z,0.00
2019-02-09T05:57:13.900Z,0.00
2019-02-09T05:58:13.855Z,0.00
2019-02-09T05:59:13.874Z,0.00
2019-02-09T06:00:13.834Z,0.00
2019-02-09T06:01:13.828Z,0.00
2019-02-09T06:02:13.812Z,0.00
2019-02-09T06:03:13.820Z,0.00
2019-02-09T06:04:13.795Z,0.00
2019-02-09T06:05:13.783Z,0.00
2019-02-09T06:06:13.768Z,0.00
2019-02-09T06:07:13.781Z,0.00
2019-02-09T06:08:13.773Z,0.00
2019-02-09T06:09:13.735Z,0.00
2019-02-09T06:10:13.744Z,0.00
2019-02-09T06:11:13.713Z,0.00
2019-02-09T06:12:13.704Z,0.00
2019-02-09T06:13:13.714Z,0.00
2019-02-09T06:14:13.707Z,0.00
2019-02-09T06:15:13.691Z,0.00
2019-02-09T06:16:13.660Z,0.00
2019-02-09T06:17:13.649Z,0.00
2019-02-09T06:18:13.636Z,0.00
2019-02-09T06:19:13.655Z,0.00
2019-02-09T06:20:13.642Z,4.00
2019-02-09T06:21:13.632Z,4.00
2019-02-09T06:22:13.601Z,4.00
2019-02-09T06:23:13.595Z,4.00
2019-02-09T06:24:13.581Z,4.00
2019-02-09T06:25:13.604Z,4.00
2019-02-09T06:26:13.569Z,4.00
2019-02-09T06:27:13.545Z,8.00
2019-02-09T06:28:13.531Z,8.00
2019-02-09T06:29:13.534Z,8.00
2019-02-09T06:30:13.518Z,8.00
2019-02-09T06:31:13.526Z,12.00
2019-02-09T06:32:13.481Z,16.00
2019-02-09T06:33:13.482Z,16.00
2019-02-09T06:34:13.459Z,20.00
2019-02-09T06:35:13.456Z,24.00
2019-02-09T06:36:13.476Z,28.00
2019-02-09T06:37:13.422Z,32.00
2019-02-09T06:38:13.425Z,36.00
2019-02-09T06:39:13.403Z,44.00
2019-02-09T06:40:13.437Z,52.00
2019-02-09T06:41:13.409Z,56.00
2019-02-09T06:42:13.369Z,68.00
2019-02-09T06:43:13.379Z,76.00
2019-02-09T06:44:13.371Z,84.00
2019-02-09T06:45:13.362Z,96.00
2019-02-09T06:46:13.344Z,104.00
2019-02-09T06:47:13.320Z,116.00
2019-02-09T06:48:13.339Z,128.00
2019-02-09T06:49:13.320Z,132.00
2019-02-09T06:50:13.288Z,140.00
2019-02-09T06:51:13.269Z,152.00
2019-02-09T06:52:13.291Z,164.00
2019-02-09T06:53:13.281Z,180.00
2019-02-09T06:54:13.235Z,200.00
2019-02-09T06:55:13.230Z,212.00
2019-02-09T06:56:13.251Z,232.00
2019-02-09T06:57:13.229Z,252.00
2019-02-09T06:58:13.220Z,268.00
2019-02-09T06:59:13.181Z,284.00
2019-02-09T07:00:13.192Z,296.00
2019-02-09T07:01:13.171Z,308.00
2019-02-09T07:02:13.150Z,312.00
2019-02-09T07:03:13.139Z,340.00
2019-02-09T07:04:13.154Z,356.00
2019-02-09T07:05:13.116Z,384.00
2019-02-09T07:06:13.109Z,396.00
2019-02-09T07:07:13.119Z,420.00
2019-02-09T07:08:13.091Z,436.00
2019-02-09T07:09:13.074Z,452.00
2019-02-09T07:10:13.057Z,468.00
2019-02-09T07:11:13.051Z,484.00
2019-02-09T07:12:13.060Z,516.00
2019-02-09T07:13:13.058Z,540.00
2019-02-09T07:14:13.025Z,560.00
2019-02-09T07:15:13.004Z,580.00
2019-02-09T07:16:12.994Z,596.00
2019-02-09T07:17:12.984Z,616.00
2019-02-09T07:18:12.998Z,636.00
2019-02-09T07:19:12.958Z,660.00
2019-02-09T07:20:12.964Z,680.00
2019-02-09T07:21:12.961Z,684.00
2019-02-09T07:22:12.974Z,684.00
2019-02-09T07:23:12.924Z,688.00
2019-02-09T07:24:12.932Z,696.00
2019-02-09T07:25:12.895Z,716.00
2019-02-09T07:26:12.884Z,728.00
2019-02-09T07:27:12.874Z,740.00
2019-02-09T07:28:12.903Z,756.00
2019-02-09T07:29:12.860Z,760.00
2019-02-09T07:30:12.862Z,788.00
2019-02-09T07:31:12.828Z,788.00
2019-02-09T07:32:12.817Z,800.00
2019-02-09T07:33:12.806Z,832.00
2019-02-09T07:34:12.824Z,804.00
2019-02-09T07:35:12.815Z,736.00
2019-02-09T07:36:12.776Z,728.00
2019-02-09T07:37:12.786Z,728.00
2019-02-09T07:38:12.751Z,724.00
2019-02-09T07:39:12.760Z,736.00
2019-02-09T07:40:12.731Z,680.00
2019-02-09T07:41:12.717Z,660.00
2019-02-09T07:42:12.743Z,680.00
2019-02-09T07:43:12.698Z,668.00
2019-02-09T07:44:12.715Z,696.00
2019-02-09T07:45:12.672Z,680.00
2019-02-09T07:46:12.667Z,640.00
2019-02-09T07:47:12.678Z,684.00
2019-02-09T07:48:12.644Z,828.00
2019-02-09T07:49:12.626Z,892.00
2019-02-09T07:50:12.621Z,972.00
2019-02-09T07:51:12.606Z,992.00
2019-02-09T07:52:12.652Z,1028.00
2019-02-09T07:53:12.584Z,1088.00
2019-02-09T07:54:12.573Z,1144.00
2019-02-09T07:55:12.607Z,1156.00
2019-02-09T07:56:12.570Z,1192.00
2019-02-09T07:57:12.579Z,1220.00
2019-02-09T07:58:12.560Z,1244.00
2019-02-09T07:59:12.561Z,1304.00
2019-02-09T08:00:12.516Z,1400.00
2019-02-09T08:01:12.504Z,1328.00
2019-02-09T08:02:12.503Z,1468.00
2019-02-09T08:03:12.504Z,1316.00
2019-02-09T08:04:12.503Z,1384.00
2019-02-09T08:05:12.485Z,1492.00
2019-02-09T08:06:12.470Z,1300.00
2019-02-09T08:07:12.440Z,1244.00
2019-02-09T08:08:12.451Z,1284.00
2019-02-09T08:09:12.410Z,1288.00
2019-02-09T08:10:12.407Z,1320.00
2019-02-09T08:11:12.403Z,1376.00
2019-02-09T08:12:12.434Z,1328.00
2019-02-09T08:13:12.409Z,1412.00
2019-02-09T08:14:12.376Z,1588.00
2019-02-09T08:15:12.344Z,1752.00
2019-02-09T08:16:12.340Z,1516.00
2019-02-09T08:17:12.339Z,1336.00
2019-02-09T08:18:12.338Z,1292.00
2019-02-09T08:19:12.304Z,1264.00
2019-02-09T08:20:12.317Z,1216.00
2019-02-09T08:21:12.277Z,1320.00
2019-02-09T08:22:12.286Z,1596.00
2019-02-09T08:23:12.254Z,1676.00
2019-02-09T08:24:12.297Z,1720.00
2019-02-09T08:25:12.256Z,1852.00
2019-02-09T08:26:12.227Z,1684.00
2019-02-09T08:27:12.238Z,1688.00
2019-02-09T08:28:12.199Z,1688.00
2019-02-09T08:29:12.235Z,1596.00
2019-02-09T08:30:12.178Z,1456.00
2019-02-09T08:31:12.213Z,1388.00
2019-02-09T08:32:13.023Z,1476.00
2019-02-09T08:33:12.183Z,1464.00
2019-02-09T08:34:12.136Z,1344.00
2019-02-09T08:35:12.155Z,1204.00
2019-02-09T08:36:12.115Z,1180.00
2019-02-09T08:37:12.112Z,1336.00
2019-02-09T08:38:12.186Z,1668.00
2019-02-09T08:39:12.081Z,1648.00
2019-02-09T08:40:12.099Z,1824.00
2019-02-09T08:41:12.064Z,2064.00
2019-02-09T08:42:12.058Z,2104.00
2019-02-09T08:43:12.129Z,2112.00
2019-02-09T08:44:12.048Z,2032.00
2019-02-09T08:45:12.025Z,2432.00
2019-02-09T08:46:12.039Z,2744.00
2019-02-09T08:47:11.992Z,2332.00
2019-02-09T08:48:11.982Z,1972.00
2019-02-09T08:49:11.971Z,2008.00
2019-02-09T08:50:11.956Z,2112.00
2019-02-09T08:51:12.010Z,1996.00
2019-02-09T08:52:11.935Z,1948.00
2019-02-09T08:53:11.921Z,1688.00
2019-02-09T08:54:11.948Z,1856.00
2019-02-09T08:55:11.898Z,1772.00
2019-02-09T08:56:11.916Z,1692.00
2019-02-09T08:57:11.877Z,1788.00
2019-02-09T08:58:11.896Z,1836.00
2019-02-09T08:59:11.890Z,1772.00
2019-02-09T09:00:11.869Z,1856.00
2019-02-09T09:01:11.858Z,2000.00
2019-02-09T09:02:11.822Z,2000.00
2019-02-09T09:03:11.842Z,2096.00
2019-02-09T09:04:11.806Z,2132.00
2019-02-09T09:05:11.804Z,2148.00
2019-02-09T09:06:11.802Z,2112.00
2019-02-09T09:07:11.768Z,2172.00
2019-02-09T09:08:11.757Z,1976.00
2019-02-09T09:09:11.744Z,2048.00
2019-02-09T09:10:11.742Z,2740.00
2019-02-09T09:11:11.755Z,2176.00
2019-02-09T09:12:11.722Z,2044.00
2019-02-09T09:13:11.717Z,2964.00
2019-02-09T09:14:11.691Z,3424.00
2019-02-09T09:15:11.677Z,3704.00
2019-02-09T09:16:11.688Z,2520.00
2019-02-09T09:17:11.655Z,2308.00
2019-02-09T09:18:11.640Z,2224.00
2019-02-09T09:19:11.648Z,2348.00
2019-02-09T09:20:11.618Z,2464.00
2019-02-09T09:21:11.625Z,2988.00
2019-02-09T09:22:11.607Z,4224.00
2019-02-09T09:23:11.590Z,4420.00
2019-02-09T09:24:11.576Z,3728.00
2019-02-09T09:25:11.563Z,4048.00
2019-02-09T09:26:11.573Z,4520.00
2019-02-09T09:27:11.559Z,3588.00
2019-02-09T09:28:11.533Z,3444.00
2019-02-09T09:29:11.536Z,4128.00
2019-02-09T09:30:11.509Z,2796.00
2019-02-09T09:31:11.511Z,2800.00
2019-02-09T09:32:11.501Z,2716.00
2019-02-09T09:33:11.514Z,2596.00
2019-02-09T09:34:11.466Z,2656.00
2019-02-09T09:35:11.457Z,2844.00
2019-02-09T09:36:11.440Z,2980.00
2019-02-09T09:37:11.432Z,2924.00
2019-02-09T09:38:11.444Z,2896.00
2019-02-09T09:39:11.410Z,2820.00
2019-02-09T09:40:11.406Z,2908.00
2019-02-09T09:41:11.389Z,3236.00
2019-02-09T09:42:11.377Z,3308.00
2019-02-09T09:43:11.388Z,3072.00
2019-02-09T09:44:11.359Z,2948.00
2019-02-09T09:45:11.343Z,3252.00
2019-02-09T09:46:11.334Z,2820.00
2019-02-09T09:47:11.341Z,2868.00
2019-02-09T09:48:11.317Z,3776.00
2019-02-09T09:49:11.299Z,2696.00
2019-02-09T09:50:11.286Z,2724.00
2019-02-09T09:51:11.296Z,3176.00
2019-02-09T09:52:11.264Z,3268.00
2019-02-09T09:53:11.253Z,3936.00
2019-02-09T09:54:11.272Z,3992.00
2019-02-09T09:55:11.246Z,3500.00
2019-02-09T09:56:11.256Z,3976.00
2019-02-09T09:57:11.212Z,4056.00
2019-02-09T09:58:11.201Z,4208.00
2019-02-09T09:59:11.189Z,4196.00
2019-02-09T10:00:11.181Z,4412.00
2019-02-09T10:01:11.190Z,2832.00
2019-02-09T10:02:11.156Z,3496.00
2019-02-09T10:03:11.147Z,2896.00
2019-02-09T10:04:11.144Z,3180.00
2019-02-09T10:05:11.122Z,3264.00
2019-02-09T10:06:11.139Z,3688.00
2019-02-09T10:07:11.098Z,3928.00
2019-02-09T10:08:11.089Z,3896.00
2019-02-09T10:09:11.079Z,4484.00
2019-02-09T10:10:11.078Z,3540.00
2019-02-09T10:11:11.079Z,3912.00
2019-02-09T10:12:11.050Z,4292.00
2019-02-09T10:13:11.032Z,4056.00
2019-02-09T10:14:11.024Z,4408.00
2019-02-09T10:15:11.042Z,6080.00
2019-02-09T10:16:11.005Z,4776.00
2019-02-09T10:17:11.002Z,5804.00
2019-02-09T10:18:10.976Z,5664.00
2019-02-09T10:19:11.000Z,3656.00
2019-02-09T10:20:10.956Z,3668.00
2019-02-09T10:21:10.975Z,3680.00
2019-02-09T10:22:10.956Z,3284.00
2019-02-09T10:23:10.932Z,3288.00
2019-02-09T10:24:10.933Z,3700.00
2019-02-09T10:25:10.916Z,3704.00
2019-02-09T10:26:10.892Z,3952.00
2019-02-09T10:27:11.214Z,4884.00
2019-02-09T10:28:10.882Z,2800.00
2019-02-09T10:29:10.858Z,2868.00
2019-02-09T10:30:10.842Z,4480.00
2019-02-09T10:31:10.857Z,4040.00
2019-02-09T10:32:10.844Z,4540.00
2019-02-09T10:33:10.831Z,4684.00
2019-02-09T10:34:10.795Z,4512.00
2019-02-09T10:35:10.814Z,4632.00
2019-02-09T10:36:10.774Z,4792.00
2019-02-09T10:37:10.794Z,4660.00
2019-02-09T10:38:10.786Z,4664.00
2019-02-09T10:39:10.745Z,4692.00
2019-02-09T10:40:10.736Z,4516.00
2019-02-09T10:41:10.722Z,4784.00
2019-02-09T10:42:10.726Z,4776.00
2019-02-09T10:43:10.733Z,4800.00
2019-02-09T10:44:10.688Z,4844.00
2019-02-09T10:45:10.684Z,4800.00
2019-02-09T10:46:10.694Z,4780.00
2019-02-09T10:47:10.656Z,4124.00
2019-02-09T10:48:10.666Z,4740.00
2019-02-09T10:49:10.630Z,4736.00
2019-02-09T10:50:10.628Z,4784.00
2019-02-09T10:51:10.611Z,4840.00
2019-02-09T10:52:10.596Z,4872.00
2019-02-09T10:53:10.600Z,4884.00
2019-02-09T10:54:10.573Z,4888.00
2019-02-09T10:55:10.570Z,4968.00
2019-02-09T10:56:10.555Z,5028.00
2019-02-09T10:57:10.579Z,2392.00
2019-02-09T10:58:10.571Z,5164.00
2019-02-09T10:59:10.525Z,5300.00
2019-02-09T11:00:10.509Z,5404.00
2019-02-09T11:01:10.499Z,5236.00
2019-02-09T11:02:10.517Z,5072.00
2019-02-09T11:03:10.484Z,4980.00
2019-02-09T11:04:10.473Z,5116.00
2019-02-09T11:05:10.500Z,5064.00
2019-02-09T11:06:10.442Z,5036.00
2019-02-09T11:07:10.453Z,5004.00
2019-02-09T11:08:10.422Z,4988.00
2019-02-09T11:09:10.409Z,5072.00
2019-02-09T11:10:10.453Z,5064.00
2019-02-09T11:11:10.390Z,4956.00
2019-02-09T11:12:10.402Z,4968.00
2019-02-09T11:13:10.373Z,4200.00
2019-02-09T11:14:10.381Z,5136.00
2019-02-09T11:15:10.375Z,5232.00
2019-02-09T11:16:10.331Z,4796.00
2019-02-09T11:17:10.327Z,3892.00
2019-02-09T11:18:10.350Z,5468.00
2019-02-09T11:19:10.305Z,5648.00
2019-02-09T11:20:10.308Z,5652.00
2019-02-09T11:21:10.280Z,5552.00
2019-02-09T11:22:10.271Z,3260.00
2019-02-09T11:23:10.255Z,5908.00
2019-02-09T11:24:10.265Z,5568.00
2019-02-09T11:25:10.260Z,5384.00
2019-02-09T11:26:10.222Z,5568.00
2019-02-09T11:27:10.240Z,3208.00
2019-02-09T11:28:10.198Z,4028.00
2019-02-09T11:29:10.190Z,6640.00
2019-02-09T11:30:10.180Z,5776.00
2019-02-09T11:31:10.189Z,4772.00
2019-02-09T11:32:10.160Z,5692.00
2019-02-09T11:33:10.167Z,4040.00
2019-02-09T11:34:10.130Z,6220.00
2019-02-09T11:35:10.125Z,5356.00
2019-02-09T11:36:10.113Z,5424.00
2019-02-09T11:37:10.125Z,4704.00
2019-02-09T11:38:10.095Z,5224.00
2019-02-09T11:39:10.078Z,4524.00
2019-02-09T11:40:10.139Z,4320.00
2019-02-09T11:41:10.055Z,5528.00
2019-02-09T11:42:10.059Z,6808.00
2019-02-09T11:43:10.031Z,7012.00
2019-02-09T11:44:10.018Z,4404.00
2019-02-09T11:45:10.037Z,4732.00
2019-02-09T11:46:09.996Z,4132.00
2019-02-09T11:47:09.987Z,7016.00
2019-02-09T11:48:09.974Z,3632.00
2019-02-09T11:49:09.968Z,4224.00
2019-02-09T11:50:09.978Z,4764.00
2019-02-09T11:51:09.960Z,5576.00
2019-02-09T11:52:09.932Z,6736.00
2019-02-09T11:53:09.917Z,6828.00
2019-02-09T11:54:09.907Z,7056.00
2019-02-09T11:55:09.920Z,7180.00
2019-02-09T11:56:09.883Z,7000.00
2019-02-09T11:57:09.886Z,7016.00
2019-02-09T11:58:09.888Z,7144.00
2019-02-09T11:59:09.854Z,7164.00
2019-02-09T12:00:09.869Z,7160.00
2019-02-09T12:01:09.831Z,7464.00
2019-02-09T12:02:09.817Z,7528.00
2019-02-09T12:03:15.735Z,7444.00
2019-02-09T12:04:10.835Z,7444.00
2019-02-09T12:05:09.785Z,7104.00
2019-02-09T12:06:09.797Z,6284.00
2019-02-09T12:07:09.788Z,4152.00
2019-02-09T12:08:09.750Z,3920.00
2019-02-09T12:09:09.743Z,4308.00
2019-02-09T12:10:09.730Z,4224.00
2019-02-09T12:11:09.723Z,6236.00
2019-02-09T12:12:09.737Z,6360.00
2019-02-09T12:13:09.732Z,7136.00
2019-02-09T12:14:09.682Z,7420.00
2019-02-09T12:15:09.673Z,3932.00
2019-02-09T12:16:09.667Z,3500.00
2019-02-09T12:17:09.699Z,3608.00
2019-02-09T12:18:09.644Z,4036.00
2019-02-09T12:19:09.643Z,5488.00
2019-02-09T12:20:09.622Z,4428.00
2019-02-09T12:21:09.604Z,3344.00
2019-02-09T12:22:09.619Z,3756.00
2019-02-09T12:23:09.605Z,3652.00
2019-02-09T12:24:09.571Z,3608.00
2019-02-09T12:25:09.561Z,3432.00
2019-02-09T12:26:09.550Z,3968.00
2019-02-09T12:27:09.577Z,4396.00
2019-02-09T12:28:09.530Z,7480.00
2019-02-09T12:29:09.524Z,6660.00
2019-02-09T12:30:09.540Z,4116.00
2019-02-09T12:31:09.494Z,3940.00
2019-02-09T12:32:09.484Z,4512.00
2019-02-09T12:33:09.470Z,7508.00
2019-02-09T12:34:09.491Z,7288.00
2019-02-09T12:35:09.454Z,5448.00
2019-02-09T12:36:09.456Z,3224.00
2019-02-09T12:37:09.430Z,3560.00
2019-02-09T12:38:09.421Z,7252.00
2019-02-09T12:39:09.430Z,4072.00
2019-02-09T12:40:09.420Z,3800.00
2019-02-09T12:41:09.385Z,3384.00
2019-02-09T12:42:09.398Z,3216.00
2019-02-09T12:43:09.365Z,3372.00
2019-02-09T12:44:09.354Z,3452.00